createdAt,value
2023-05-06T00:00:16.293Z,6.23
2023-05-06T00:02:44.521Z,4.37
2023-05-06T00:05:12.959Z,3.70
2023-05-06T00:07:42.904Z,7.17
2023-05-06T00:10:11.564Z,3.57
2023-05-06T00:12:39.815Z,3.53
2023-05-06T00:15:09.618Z,3.60
2023-05-06T00:17:37.936Z,5.17
2023-05-06T00:20:07.447Z,6.23
2023-05-06T00:22:35.781Z,3.43
2023-05-06T00:25:05.665Z,5.37
2023-05-06T00:27:34.356Z,4.23
2023-05-06T00:30:02.709Z,4.30
2023-05-06T00:32:30.953Z,3.73
2023-05-06T00:34:59.129Z,3.60
2023-05-06T00:37:27.481Z,7.83
2023-05-06T00:39:55.649Z,4.50
2023-05-06T00:42:25.214Z,3.63
2023-05-06T00:44:53.673Z,3.90
2023-05-06T00:47:23.427Z,7.03
2023-05-06T00:49:51.927Z,3.83
2023-05-06T00:52:21.068Z,6.40
2023-05-06T00:54:49.786Z,4.17
2023-05-06T00:57:18.283Z,5.00
2023-05-06T00:59:47.980Z,3.97
2023-05-06T01:05:22.332Z,4.80
2023-05-06T01:08:00.238Z,4.10
2023-05-06T01:10:34.937Z,8.97
2023-05-06T01:13:09.550Z,4.60
2023-05-06T01:15:44.261Z,4.40
2023-05-06T01:18:17.123Z,4.30
2023-05-06T01:20:49.753Z,8.97
2023-05-06T01:23:19.730Z,5.73
2023-05-06T01:25:48.004Z,4.10
2023-05-06T01:28:16.336Z,5.67
2023-05-06T01:30:53.877Z,7.93
2023-05-06T01:33:33.417Z,3.80
2023-05-06T01:36:09.855Z,4.30
2023-05-06T01:38:47.191Z,4.20
2023-05-06T01:41:17.683Z,4.53
2023-05-06T01:43:48.536Z,3.93
2023-05-06T01:46:19.778Z,4.20
2023-05-06T01:48:51.091Z,5.77
2023-05-06T01:51:19.428Z,3.87
2023-05-06T01:53:48.976Z,5.20
2023-05-06T01:56:17.829Z,7.00
2023-05-06T01:58:46.174Z,5.47
2023-05-06T02:01:14.392Z,4.63
2023-05-06T02:03:42.691Z,7.03
2023-05-06T02:06:11.193Z,4.37
2023-05-06T02:08:40.708Z,4.53
2023-05-06T02:11:10.289Z,6.23
2023-05-06T02:13:38.707Z,5.27
2023-05-06T02:16:07.206Z,6.20
2023-05-06T02:18:35.857Z,5.13
2023-05-06T02:21:04.295Z,6.30
2023-05-06T02:23:32.497Z,5.10
2023-05-06T02:26:00.667Z,5.63
2023-05-06T02:28:30.351Z,7.63
2023-05-06T02:30:58.800Z,5.10
2023-05-06T02:33:27.224Z,5.67
2023-05-06T02:35:55.612Z,6.00
2023-05-06T02:38:23.770Z,5.53
2023-05-06T02:40:52.123Z,6.57
2023-05-06T02:43:20.581Z,5.40
2023-05-06T02:45:50.164Z,5.23
2023-05-06T02:48:18.521Z,5.03
2023-05-06T02:50:47.097Z,7.90
2023-05-06T02:53:15.381Z,5.80
2023-05-06T02:55:43.529Z,6.17
2023-05-06T02:58:11.832Z,5.97
2023-05-06T03:00:40.031Z,6.47
2023-05-06T03:03:11.194Z,6.77
2023-05-06T03:05:39.572Z,6.30
2023-05-06T03:08:07.895Z,6.10
2023-05-06T03:10:36.261Z,6.43
2023-05-06T03:13:04.544Z,6.23
2023-05-06T03:15:33.163Z,6.93
2023-05-06T03:18:01.469Z,5.97
2023-05-06T03:20:31.497Z,6.37
2023-05-06T03:22:59.742Z,8.47
2023-05-06T03:25:28.044Z,6.80
2023-05-06T03:27:56.312Z,9.63
2023-05-06T03:30:24.486Z,8.87
2023-05-06T03:32:52.784Z,6.87
2023-05-06T03:35:21.525Z,6.90
2023-05-06T03:37:51.088Z,7.60
2023-05-06T03:40:21.931Z,9.20
2023-05-06T03:42:51.399Z,7.40
2023-05-06T03:45:19.666Z,8.17
2023-05-06T03:47:48.350Z,7.53
2023-05-06T03:50:16.813Z,7.27
2023-05-06T03:52:45.153Z,9.33
2023-05-06T03:55:14.705Z,9.00
2023-05-06T03:57:43.027Z,9.37
2023-05-06T04:00:12.381Z,10.10
2023-05-06T04:02:42.576Z,11.37
2023-05-06T04:05:11.377Z,10.23
2023-05-06T04:07:39.671Z,11.47
2023-05-06T04:10:09.633Z,10.30
2023-05-06T04:12:39.212Z,9.50
2023-05-06T04:15:09.106Z,9.43
2023-05-06T04:17:37.697Z,15.23
2023-05-06T04:20:07.327Z,12.70
2023-05-06T04:22:35.487Z,8.90
2023-05-06T04:25:03.711Z,11.93
2023-05-06T04:27:32.200Z,8.27
2023-05-06T04:30:01.750Z,12.13
2023-05-06T04:32:30.021Z,9.90
2023-05-06T04:34:58.395Z,10.57
2023-05-06T04:37:28.446Z,11.83
2023-05-06T04:39:57.307Z,8.57
2023-05-06T04:42:25.719Z,9.60
2023-05-06T04:44:53.845Z,9.73
2023-05-06T04:47:23.379Z,10.47
2023-05-06T04:49:51.787Z,8.43
2023-05-06T04:52:20.105Z,10.03
2023-05-06T04:54:48.243Z,10.13
2023-05-06T04:57:16.607Z,12.03
2023-05-06T04:59:44.734Z,8.33
2023-05-06T05:02:12.990Z,10.73
2023-05-06T05:04:42.700Z,9.37
2023-05-06T05:07:11.247Z,8.93
2023-05-06T05:09:39.653Z,7.87
2023-05-06T05:12:08.338Z,10.37
2023-05-06T05:14:36.572Z,8.17
2023-05-06T05:17:04.859Z,10.40
2023-05-06T05:19:33.172Z,8.20
2023-05-06T05:22:02.725Z,10.70
2023-05-06T05:24:30.962Z,7.33
2023-05-06T05:26:59.194Z,6.67
2023-05-06T05:29:27.369Z,8.63
2023-05-06T05:31:55.652Z,10.63
2023-05-06T05:34:23.960Z,8.77
2023-05-06T05:36:52.156Z,6.63
2023-05-06T05:39:21.645Z,9.37
2023-05-06T05:41:49.901Z,9.37
2023-05-06T05:44:18.118Z,6.73
2023-05-06T05:46:46.428Z,6.57
2023-05-06T05:49:14.899Z,7.57
2023-05-06T05:51:43.255Z,11.00
2023-05-06T05:54:11.399Z,8.07
2023-05-06T05:56:40.876Z,6.77
2023-05-06T05:59:09.177Z,4.97
2023-05-06T06:01:37.304Z,5.27
2023-05-06T06:04:06.019Z,6.83
2023-05-06T06:06:35.080Z,5.07
2023-05-06T06:09:03.368Z,5.10
2023-05-06T06:11:31.589Z,5.27
2023-05-06T06:14:01.160Z,5.73
2023-05-06T06:16:29.486Z,4.37
2023-05-06T06:18:57.900Z,4.50
2023-05-06T06:21:27.708Z,6.07
2023-05-06T06:23:55.899Z,4.30
2023-05-06T06:26:24.074Z,4.27
2023-05-06T06:28:52.338Z,6.50
2023-05-06T06:31:22.016Z,4.37
2023-05-06T06:33:50.234Z,4.60
2023-05-06T06:36:18.536Z,5.73
2023-05-06T06:38:46.799Z,5.43
2023-05-06T06:41:15.489Z,4.07
2023-05-06T06:43:43.799Z,4.97
2023-05-06T06:46:12.022Z,4.37
2023-05-06T06:48:41.638Z,3.73
2023-05-06T06:51:09.947Z,3.60
2023-05-06T06:53:38.279Z,4.33
2023-05-06T06:56:11.157Z,3.40
2023-05-06T06:58:39.352Z,4.10
2023-05-06T07:01:07.548Z,4.00
2023-05-06T07:03:36.013Z,3.30
2023-05-06T07:06:05.987Z,3.63
2023-05-06T07:08:34.135Z,3.87
2023-05-06T07:11:03.773Z,3.10
2023-05-06T07:13:32.261Z,3.63
2023-05-06T07:16:03.123Z,4.17
2023-05-06T07:18:31.519Z,3.57
2023-05-06T07:20:59.941Z,3.50
2023-05-06T07:23:31.227Z,4.37
2023-05-06T07:26:00.825Z,3.63
2023-05-06T07:28:29.051Z,3.87
2023-05-06T07:30:57.392Z,3.80
2023-05-06T07:33:26.044Z,4.40
2023-05-06T07:35:54.870Z,5.90
2023-05-06T07:38:23.379Z,5.73
2023-05-06T07:40:53.299Z,6.80
2023-05-06T07:43:22.990Z,4.53
2023-05-06T07:45:51.239Z,4.17
2023-05-06T07:48:20.478Z,4.50
2023-05-06T07:50:51.587Z,5.50
2023-05-06T07:53:19.811Z,3.87
2023-05-06T07:55:48.144Z,4.40
2023-05-06T07:58:17.657Z,3.40
2023-05-06T08:00:46.164Z,3.50
2023-05-06T08:03:14.731Z,5.13
2023-05-06T08:05:43.018Z,4.37
2023-05-06T08:08:11.465Z,3.40
2023-05-06T08:10:39.730Z,3.60
2023-05-06T08:13:07.923Z,8.20
2023-05-06T08:15:37.666Z,4.57
2023-05-06T08:18:21.068Z,3.67
2023-05-06T08:20:51.291Z,3.97
2023-05-06T08:23:19.752Z,3.17
2023-05-06T08:25:47.978Z,2.80
2023-05-06T08:28:16.338Z,4.77
2023-05-06T08:30:47.917Z,4.63
2023-05-06T08:33:16.062Z,2.93
2023-05-06T08:35:44.984Z,3.43
2023-05-06T08:38:13.408Z,2.97
2023-05-06T08:40:45.000Z,4.07
2023-05-06T08:43:15.474Z,3.57
2023-05-06T08:45:45.166Z,5.60
2023-05-06T08:48:13.652Z,2.50
2023-05-06T08:50:43.980Z,2.40
2023-05-06T08:53:13.660Z,3.40
2023-05-06T08:55:43.732Z,3.03
2023-05-06T08:58:15.808Z,2.60
2023-05-06T09:00:47.034Z,2.50
2023-05-06T09:03:15.266Z,2.30
2023-05-06T09:05:43.779Z,2.35
2023-05-06T09:08:12.491Z,1.87
2023-05-06T09:10:45.427Z,2.67
2023-05-06T09:13:15.032Z,2.42
2023-05-06T09:15:43.854Z,3.63
2023-05-06T09:18:13.968Z,4.30
2023-05-06T09:20:42.988Z,6.23
2023-05-06T09:23:12.401Z,4.37
2023-05-06T09:25:41.213Z,2.93
2023-05-06T09:28:10.941Z,3.00
2023-05-06T09:30:41.636Z,4.63
2023-05-06T09:33:10.576Z,3.17
2023-05-06T09:35:42.115Z,4.50
2023-05-06T09:38:11.083Z,2.70
2023-05-06T09:40:40.085Z,4.00
2023-05-06T09:43:08.993Z,2.70
2023-05-06T09:45:37.571Z,2.53
2023-05-06T09:48:07.663Z,5.17
2023-05-06T09:50:36.958Z,3.10
2023-05-06T09:53:07.637Z,4.63
2023-05-06T09:55:36.660Z,2.97
2023-05-06T09:58:05.410Z,2.87
2023-05-06T10:00:33.847Z,2.37
2023-05-06T10:03:03.109Z,2.90
2023-05-06T10:05:32.893Z,4.27
2023-05-06T10:08:04.338Z,10.23
2023-05-06T10:10:35.632Z,2.60
2023-05-06T10:13:04.650Z,3.90
2023-05-06T10:15:34.154Z,3.27
2023-05-06T10:18:04.301Z,3.27
2023-05-06T10:20:35.277Z,3.17
2023-05-06T10:23:11.011Z,3.20
2023-05-06T10:25:42.500Z,2.93
2023-05-06T10:28:20.739Z,3.97
2023-05-06T10:31:00.805Z,3.00
2023-05-06T10:33:29.659Z,2.90
2023-05-06T10:36:08.738Z,5.43
2023-05-06T10:38:42.473Z,3.20
2023-05-06T10:41:13.656Z,3.97
2023-05-06T10:43:43.856Z,3.93
2023-05-06T10:46:13.329Z,2.47
2023-05-06T10:49:18.399Z,3.90
2023-05-06T10:51:48.368Z,4.03
2023-05-06T10:54:25.148Z,3.27
2023-05-06T10:57:13.848Z,3.10
2023-05-06T10:59:47.793Z,3.63
2023-05-06T11:02:20.023Z,3.17
2023-05-06T11:04:53.072Z,4.37
2023-05-06T11:07:25.548Z,2.57
2023-05-06T11:09:58.866Z,2.97
2023-05-06T11:12:51.270Z,3.63
2023-05-06T11:15:27.408Z,2.77
2023-05-06T11:17:56.602Z,2.27
2023-05-06T11:20:26.524Z,4.57
2023-05-06T11:22:55.877Z,3.00
2023-05-06T11:25:43.602Z,5.70
2023-05-06T11:28:14.919Z,3.27
2023-05-06T11:30:44.470Z,2.07
2023-05-06T11:33:19.724Z,3.10
2023-05-06T11:35:48.937Z,2.20
2023-05-06T11:38:17.154Z,2.70
2023-05-06T11:40:45.452Z,3.07
2023-05-06T11:43:16.247Z,5.30
2023-05-06T11:45:45.759Z,4.87
2023-05-06T11:48:14.265Z,3.47
2023-05-06T11:50:47.339Z,3.97
2023-05-06T11:53:19.104Z,3.10
2023-05-06T11:55:48.056Z,2.33
2023-05-06T11:58:19.118Z,3.27
2023-05-06T12:00:51.308Z,3.83
2023-05-06T12:03:20.349Z,2.50
2023-05-06T12:05:49.541Z,3.33
2023-05-06T12:08:27.420Z,3.63
2023-05-06T12:10:59.277Z,2.50
2023-05-06T12:13:29.668Z,4.13
2023-05-06T12:15:59.900Z,5.93
2023-05-06T12:18:28.846Z,2.03
2023-05-06T12:20:57.810Z,4.20
2023-05-06T12:23:26.229Z,5.00
2023-05-06T12:26:04.345Z,5.50
2023-05-06T12:28:34.907Z,5.37
2023-05-06T12:31:18.852Z,5.17
2023-05-06T12:33:49.079Z,2.20
2023-05-06T12:36:19.935Z,8.77
2023-05-06T12:38:55.079Z,3.60
2023-05-06T12:41:24.955Z,3.40
2023-05-06T12:43:54.445Z,2.37
2023-05-06T12:46:23.213Z,2.03
2023-05-06T12:49:01.884Z,3.70
2023-05-06T12:51:32.378Z,2.77
2023-05-06T12:54:00.559Z,2.67
2023-05-06T12:56:28.782Z,3.63
2023-05-06T12:58:59.832Z,4.90
2023-05-06T13:01:28.147Z,3.80
2023-05-06T13:03:58.432Z,3.00
2023-05-06T13:06:26.626Z,3.27
2023-05-06T13:08:54.760Z,2.53
2023-05-06T13:11:27.256Z,5.13
2023-05-06T13:13:55.392Z,5.80
2023-05-06T13:16:25.320Z,4.77
2023-05-06T13:18:53.653Z,4.03
2023-05-06T13:21:21.798Z,2.50
2023-05-06T13:23:50.428Z,2.93
2023-05-06T13:26:18.739Z,4.63
2023-05-06T13:28:47.465Z,3.50
2023-05-06T13:31:15.692Z,2.83
2023-05-06T13:33:45.466Z,6.00
2023-05-06T13:36:13.602Z,4.77
2023-05-06T13:38:41.758Z,2.70
2023-05-06T13:41:10.241Z,4.97
2023-05-06T13:43:38.539Z,2.17
2023-05-06T13:46:06.817Z,4.63
2023-05-06T13:48:35.093Z,3.27
2023-05-06T13:51:05.246Z,4.73
2023-05-06T13:53:33.447Z,3.33
2023-05-06T13:56:01.642Z,4.47
2023-05-06T13:58:29.815Z,4.70
2023-05-06T14:00:58.002Z,3.47
2023-05-06T14:03:26.494Z,4.03
2023-05-06T14:05:54.660Z,1.87
2023-05-06T14:08:24.285Z,5.17
2023-05-06T14:10:52.771Z,5.70
2023-05-06T14:13:21.106Z,2.33
2023-05-06T14:15:49.394Z,5.67
2023-05-06T14:18:18.146Z,3.77
2023-05-06T14:20:46.266Z,5.77
2023-05-06T14:23:14.385Z,4.17
2023-05-06T14:25:44.186Z,13.17
2023-05-06T14:28:12.986Z,6.03
2023-05-06T14:30:41.141Z,4.30
2023-05-06T14:33:10.063Z,3.17
2023-05-06T14:35:41.853Z,4.60
2023-05-06T14:38:10.621Z,5.17
2023-05-06T14:40:39.014Z,2.97
2023-05-06T14:43:09.094Z,4.20
2023-05-06T14:45:37.692Z,10.23
2023-05-06T14:48:06.743Z,5.90
2023-05-06T14:50:35.244Z,5.17
2023-05-06T14:53:04.789Z,8.67
2023-05-06T14:55:33.045Z,6.30
2023-05-06T14:58:01.125Z,7.17
2023-05-06T15:00:30.890Z,11.40
2023-05-06T15:02:59.484Z,7.30
2023-05-06T15:05:27.710Z,4.67
2023-05-06T15:07:56.059Z,6.37
2023-05-06T15:10:24.197Z,4.47
2023-05-06T15:12:52.484Z,4.87
2023-05-06T15:15:21.607Z,4.23
2023-05-06T15:17:52.380Z,3.10
2023-05-06T15:20:21.024Z,8.40
2023-05-06T15:26:31.988Z,7.13
2023-05-06T15:29:20.095Z,5.43
2023-05-06T15:31:48.689Z,5.27
2023-05-06T15:34:20.196Z,4.53
2023-05-06T15:36:52.483Z,4.47
2023-05-06T15:39:20.987Z,8.43
2023-05-06T15:41:49.412Z,6.47
2023-05-06T15:44:20.731Z,6.13
2023-05-06T15:46:49.350Z,5.30
2023-05-06T15:49:47.302Z,6.07
2023-05-06T15:52:07.161Z,5.77
2023-05-06T15:54:37.573Z,4.23
2023-05-06T15:57:07.035Z,5.27
2023-05-06T15:59:35.786Z,6.87
2023-05-06T16:04:36.658Z,37.17
2023-05-06T16:07:05.405Z,60.00
2023-05-06T16:09:33.607Z,7.07
2023-05-06T16:12:01.928Z,8.90
2023-05-06T16:14:30.269Z,5.07
2023-05-06T16:16:59.037Z,4.43
2023-05-06T16:19:27.705Z,5.63
2023-05-06T16:21:57.433Z,5.03
2023-05-06T16:24:25.600Z,7.73
2023-05-06T16:26:55.998Z,5.93
2023-05-06T16:29:24.938Z,6.63
2023-05-06T16:31:53.152Z,6.37
2023-05-06T16:34:21.461Z,8.90
2023-05-06T16:36:50.784Z,6.97
2023-05-06T16:39:20.356Z,6.17
2023-05-06T16:41:48.502Z,3.87
2023-05-06T16:44:16.639Z,5.70
2023-05-06T16:46:44.863Z,3.57
2023-05-06T16:49:13.030Z,7.90
2023-05-06T16:51:41.350Z,9.07
2023-05-06T16:54:09.583Z,9.27
2023-05-06T16:56:50.668Z,4.77
2023-05-06T16:59:21.940Z,7.97
2023-05-06T17:01:50.795Z,5.37
2023-05-06T17:04:18.932Z,5.57
2023-05-06T17:06:47.441Z,5.03
2023-05-06T17:09:16.353Z,5.17
2023-05-06T17:11:45.858Z,8.13
2023-05-06T17:14:14.623Z,3.50
2023-05-06T17:16:43.365Z,6.33
2023-05-06T17:19:12.049Z,3.60
2023-05-06T17:21:40.440Z,3.53
2023-05-06T17:24:08.745Z,2.53
2023-05-06T17:26:37.301Z,4.57
2023-05-06T17:29:07.326Z,6.87
2023-05-06T17:31:35.466Z,8.80
2023-05-06T17:34:03.864Z,3.70
2023-05-06T17:36:32.655Z,7.77
2023-05-06T17:39:04.707Z,5.80
2023-05-06T17:41:33.904Z,7.80
2023-05-06T17:44:02.220Z,6.30
2023-05-06T17:46:32.303Z,6.53
2023-05-06T17:49:00.862Z,6.70
2023-05-06T17:51:29.010Z,4.57
2023-05-06T17:53:58.380Z,6.77
2023-05-06T17:56:27.378Z,5.50
2023-05-06T17:58:56.591Z,9.50
2023-05-06T18:01:24.778Z,9.57
2023-05-06T18:03:55.630Z,6.90
2023-05-06T18:06:23.858Z,6.23
2023-05-06T18:08:52.011Z,8.20
2023-05-06T18:11:20.963Z,4.67
2023-05-06T18:13:49.145Z,5.93
2023-05-06T18:16:17.322Z,6.57
2023-05-06T18:18:45.764Z,7.77
2023-05-06T18:21:15.563Z,7.07
2023-05-06T18:23:43.744Z,4.57
2023-05-06T18:26:12.289Z,4.67
2023-05-06T18:28:41.716Z,6.13
2023-05-06T18:31:10.050Z,5.43
2023-05-06T18:33:39.014Z,7.07
2023-05-06T18:36:07.885Z,5.37
2023-05-06T18:38:37.442Z,5.37
2023-05-06T18:41:07.229Z,7.37
2023-05-06T18:43:35.507Z,7.77
2023-05-06T18:46:05.403Z,7.03
2023-05-06T18:48:34.060Z,9.17
2023-05-06T18:51:12.650Z,8.70
2023-05-06T18:53:43.003Z,8.63
2023-05-06T18:56:12.043Z,6.73
2023-05-06T18:58:41.495Z,10.37
2023-05-06T19:01:11.785Z,8.43
2023-05-06T19:03:40.430Z,12.77
2023-05-06T19:06:09.257Z,13.90
2023-05-06T19:08:38.855Z,14.83
2023-05-06T19:11:15.577Z,13.77
2023-05-06T19:13:45.171Z,15.23
2023-05-06T19:16:13.629Z,20.63
2023-05-06T19:18:41.934Z,24.27
2023-05-06T19:21:11.053Z,11.27
2023-05-06T19:23:39.653Z,12.93
2023-05-06T19:26:11.502Z,10.70
2023-05-06T19:28:40.600Z,11.47
2023-05-06T19:31:09.577Z,11.77
2023-05-06T19:33:38.174Z,12.10
2023-05-06T19:36:07.603Z,7.37
2023-05-06T19:38:36.112Z,6.63
2023-05-06T19:41:04.740Z,11.17
2023-05-06T19:43:34.613Z,12.03
2023-05-06T19:46:02.786Z,11.63
2023-05-06T19:48:31.033Z,9.83
2023-05-06T19:50:59.462Z,13.33
2023-05-06T19:53:27.686Z,13.87
2023-05-06T19:55:58.095Z,13.30
2023-05-06T19:58:26.498Z,11.07
2023-05-06T20:00:56.044Z,7.13
2023-05-06T20:03:24.343Z,6.07
2023-05-06T20:05:52.785Z,14.13
2023-05-06T20:08:20.936Z,8.23
2023-05-06T20:10:49.641Z,5.37
2023-05-06T20:13:18.628Z,6.67
2023-05-06T20:15:47.521Z,4.77
2023-05-06T20:18:17.311Z,8.40
2023-05-06T20:20:47.235Z,9.10
2023-05-06T20:23:15.440Z,4.80
2023-05-06T20:25:43.689Z,16.33
2023-05-06T20:28:12.023Z,7.90
2023-05-06T20:30:40.202Z,11.50
2023-05-06T20:33:08.572Z,8.37
2023-05-06T20:35:40.472Z,8.00
2023-05-06T20:38:09.396Z,4.60
2023-05-06T20:40:37.929Z,6.57
2023-05-06T20:43:06.095Z,6.40
2023-05-06T20:45:34.287Z,10.00
2023-05-06T20:48:02.554Z,6.63
2023-05-06T20:50:31.370Z,13.13
2023-05-06T20:53:02.451Z,7.00
2023-05-06T20:55:30.877Z,8.57
2023-05-06T20:57:59.017Z,13.07
2023-05-06T21:00:27.541Z,7.30
2023-05-06T21:02:56.044Z,10.63
2023-05-06T21:05:24.754Z,10.83
2023-05-06T21:07:53.155Z,11.13
2023-05-06T21:10:22.876Z,7.93
2023-05-06T21:12:51.671Z,14.27
2023-05-06T21:15:20.062Z,8.17
2023-05-06T21:17:48.442Z,9.90
2023-05-06T21:20:17.055Z,12.40
2023-05-06T21:22:45.290Z,9.80
2023-05-06T21:25:14.331Z,12.47
2023-05-06T21:27:43.866Z,9.13
2023-05-06T21:30:12.801Z,9.10
2023-05-06T21:32:41.269Z,6.53
2023-05-06T21:35:10.176Z,9.40
2023-05-06T21:37:41.671Z,13.87
2023-05-06T21:40:11.237Z,11.03
2023-05-06T21:42:39.537Z,8.23
2023-05-06T21:45:11.452Z,11.30
2023-05-06T21:47:39.942Z,9.97
2023-05-06T21:50:10.619Z,9.47
2023-05-06T21:52:38.997Z,11.73
2023-05-06T21:55:08.617Z,11.77
2023-05-06T21:57:37.204Z,10.97
2023-05-06T22:00:12.289Z,13.93
2023-05-06T22:02:42.402Z,12.10
2023-05-06T22:05:11.435Z,14.23
2023-05-06T22:07:39.766Z,11.60
2023-05-06T22:10:09.136Z,15.17
2023-05-06T22:12:37.371Z,9.83
2023-05-06T22:15:07.245Z,9.53
2023-05-06T22:17:36.588Z,10.00
2023-05-06T22:20:11.175Z,17.37
2023-05-06T22:22:39.549Z,10.53
2023-05-06T22:25:09.004Z,11.67
2023-05-06T22:27:37.487Z,13.80
2023-05-06T22:30:08.117Z,12.13
2023-05-06T22:32:36.364Z,11.07
2023-05-06T22:35:06.946Z,10.63
2023-05-06T22:37:35.078Z,13.77
2023-05-06T22:40:03.276Z,12.20
2023-05-06T22:42:31.816Z,8.53
2023-05-06T22:44:59.882Z,10.63
2023-05-06T22:47:28.027Z,14.40
2023-05-06T22:49:56.469Z,15.27
2023-05-06T22:52:26.007Z,11.33
2023-05-06T22:54:54.865Z,19.37
2023-05-06T22:57:25.554Z,14.10
2023-05-06T22:59:53.785Z,12.97
2023-05-06T23:02:21.946Z,8.17
2023-05-06T23:04:50.307Z,18.13
2023-05-06T23:07:18.489Z,9.20
2023-05-06T23:09:47.993Z,13.60
2023-05-06T23:12:16.405Z,14.13
2023-05-06T23:14:44.491Z,12.73
2023-05-06T23:17:12.726Z,13.47
2023-05-06T23:19:41.314Z,12.43
2023-05-06T23:22:09.455Z,13.60
2023-05-06T23:24:37.655Z,10.87
2023-05-06T23:27:07.480Z,11.23
2023-05-06T23:29:35.718Z,11.47
2023-05-06T23:32:04.388Z,14.70
2023-05-06T23:34:32.971Z,11.80
2023-05-06T23:37:01.466Z,13.53
2023-05-06T23:39:29.713Z,13.00
2023-05-06T23:42:00.562Z,15.37
2023-05-06T23:44:30.117Z,11.47
2023-05-06T23:46:58.282Z,16.50
2023-05-06T23:49:26.767Z,17.33
2023-05-06T23:51:54.875Z,12.23
2023-05-06T23:54:23.029Z,9.77
2023-05-06T23:56:51.362Z,13.70
2023-05-06T23:59:19.532Z,17.63
